createdAt,value
2022-12-18T00:00:00.597Z,84.00
2022-12-18T00:05:04.138Z,83.90
2022-12-18T00:10:08.742Z,84.20
2022-12-18T00:15:13.665Z,84.30
2022-12-18T00:20:21.930Z,83.40
2022-12-18T00:25:25.560Z,83.20
2022-12-18T00:30:30.494Z,83.30
2022-12-18T00:35:34.308Z,84.20
2022-12-18T00:40:37.830Z,84.20
2022-12-18T00:45:42.708Z,83.80
2022-12-18T00:50:46.392Z,84.40
2022-12-18T00:55:49.945Z,84.10
2022-12-18T01:00:54.878Z,83.30
2022-12-18T01:05:58.438Z,83.50
2022-12-18T01:11:02.123Z,83.60
2022-12-18T01:16:07.434Z,83.40
2022-12-18T01:21:13.784Z,83.40
2022-12-18T01:26:18.375Z,83.50
2022-12-18T01:31:25.587Z,83.70
2022-12-18T01:36:31.685Z,83.50
2022-12-18T01:41:49.897Z,83.90
2022-12-18T01:46:54.799Z,84.00
2022-12-18T01:51:58.227Z,83.90
2022-12-18T01:57:02.164Z,83.60
2022-12-18T02:02:07.303Z,84.00
2022-12-18T02:07:18.721Z,83.50
2022-12-18T02:12:24.290Z,83.60
2022-12-18T02:17:34.793Z,83.60
2022-12-18T02:22:42.449Z,83.80
2022-12-18T02:27:48.425Z,83.60
2022-12-18T02:32:53.484Z,83.70
2022-12-18T02:37:57.790Z,83.60
2022-12-18T02:43:09.981Z,84.10
2022-12-18T02:48:13.429Z,83.70
2022-12-18T02:53:19.974Z,83.80
2022-12-18T02:58:30.097Z,84.20
2022-12-18T03:03:38.826Z,84.20
2022-12-18T03:08:45.746Z,84.40
2022-12-18T03:13:53.510Z,84.50
2022-12-18T03:18:59.056Z,84.20
2022-12-18T03:24:03.143Z,84.40
2022-12-18T03:29:12.214Z,84.50
2022-12-18T03:34:18.638Z,84.40
2022-12-18T03:39:22.241Z,84.40
2022-12-18T03:44:32.294Z,84.60
2022-12-18T03:49:39.035Z,84.80
2022-12-18T03:54:44.023Z,84.50
2022-12-18T03:59:50.690Z,84.90
2022-12-18T04:04:55.469Z,84.50
2022-12-18T04:10:00.673Z,84.50
2022-12-18T04:15:06.362Z,84.60
2022-12-18T04:20:10.880Z,84.80
2022-12-18T04:25:14.537Z,84.20
2022-12-18T04:30:19.657Z,85.00
2022-12-18T04:35:23.131Z,84.90
2022-12-18T04:40:26.632Z,84.60
2022-12-18T04:45:32.349Z,84.80
2022-12-18T04:50:35.794Z,84.90
2022-12-18T04:55:39.223Z,84.70
2022-12-18T05:00:44.441Z,85.00
2022-12-18T05:05:47.921Z,85.00
2022-12-18T05:10:51.486Z,84.50
2022-12-18T05:15:57.044Z,84.70
2022-12-18T05:21:00.608Z,84.90
2022-12-18T05:26:05.945Z,85.30
2022-12-18T05:31:10.904Z,84.60
2022-12-18T05:36:14.497Z,84.80
2022-12-18T05:41:18.104Z,84.90
2022-12-18T05:46:23.017Z,84.80
2022-12-18T05:51:26.549Z,85.00
2022-12-18T05:56:30.093Z,84.60
2022-12-18T06:01:35.034Z,84.60
2022-12-18T06:06:38.598Z,84.70
2022-12-18T06:11:42.536Z,84.90
2022-12-18T06:16:47.438Z,84.50
2022-12-18T06:21:51.917Z,84.60
2022-12-18T06:26:55.354Z,85.00
2022-12-18T06:32:00.288Z,84.40
2022-12-18T06:37:03.803Z,84.70
2022-12-18T06:42:07.581Z,84.70
2022-12-18T06:47:12.852Z,84.70
2022-12-18T06:52:16.341Z,84.80
2022-12-18T06:57:19.767Z,85.00
2022-12-18T07:02:24.759Z,84.90
2022-12-18T07:07:28.411Z,84.70
2022-12-18T07:12:31.961Z,84.50
2022-12-18T07:17:36.909Z,84.70
2022-12-18T07:22:40.407Z,84.40
2022-12-18T07:27:43.901Z,84.80
2022-12-18T07:32:48.821Z,84.40
2022-12-18T07:37:52.278Z,84.50
2022-12-18T07:42:55.710Z,84.00
2022-12-18T07:48:00.594Z,83.90
2022-12-18T07:53:04.769Z,83.20
2022-12-18T07:58:08.262Z,83.70
2022-12-18T08:03:13.212Z,84.00
2022-12-18T08:08:16.693Z,83.60
2022-12-18T08:13:20.188Z,83.30
2022-12-18T08:18:25.306Z,83.70
2022-12-18T08:23:29.032Z,83.60
2022-12-18T08:28:32.625Z,83.80
2022-12-18T08:33:39.054Z,83.80
2022-12-18T08:38:42.808Z,84.00
2022-12-18T08:44:03.621Z,83.60
2022-12-18T08:49:09.140Z,83.90
2022-12-18T08:54:13.882Z,83.50
2022-12-18T08:59:22.506Z,83.90
2022-12-18T09:04:27.393Z,84.10
2022-12-18T09:09:30.940Z,83.90
2022-12-18T09:14:34.402Z,82.60
2022-12-18T09:19:39.281Z,82.20
2022-12-18T09:24:42.828Z,83.00
2022-12-18T09:29:46.346Z,82.70
2022-12-18T09:34:51.583Z,82.40
2022-12-18T09:39:55.042Z,82.00
2022-12-18T09:44:58.749Z,81.90
2022-12-18T09:50:05.802Z,81.00
2022-12-18T09:55:15.602Z,80.90
2022-12-18T10:00:21.907Z,81.10
2022-12-18T10:05:33.999Z,80.40
2022-12-18T10:10:41.217Z,80.00
2022-12-18T10:15:55.257Z,79.80
2022-12-18T10:21:04.907Z,79.50
2022-12-18T10:26:13.248Z,79.70
2022-12-18T10:31:19.235Z,79.50
2022-12-18T10:36:25.934Z,79.60
2022-12-18T10:41:32.061Z,77.90
2022-12-18T10:46:38.362Z,78.90
2022-12-18T10:51:43.350Z,79.40
2022-12-18T10:56:47.519Z,79.50
2022-12-18T11:01:53.151Z,78.90
2022-12-18T11:07:00.481Z,79.40
2022-12-18T11:12:07.318Z,77.90
2022-12-18T11:17:25.886Z,78.90
2022-12-18T11:22:32.543Z,79.20
2022-12-18T11:27:36.036Z,78.30
2022-12-18T11:32:41.362Z,78.30
2022-12-18T11:37:49.174Z,77.70
2022-12-18T11:42:56.326Z,78.00
2022-12-18T11:48:03.348Z,78.00
2022-12-18T11:53:12.611Z,78.00
2022-12-18T11:58:26.422Z,77.70
2022-12-18T12:03:58.677Z,77.60
2022-12-18T12:09:11.164Z,77.50
2022-12-18T12:14:30.393Z,76.90
2022-12-18T12:19:41.298Z,76.70
2022-12-18T12:24:55.346Z,77.00
2022-12-18T12:30:06.054Z,76.40
2022-12-18T12:35:24.998Z,76.50
2022-12-18T12:41:03.649Z,76.30
2022-12-18T12:45:58.673Z,71.30
2022-12-18T12:51:03.506Z,69.30
2022-12-18T12:56:09.437Z,67.00
2022-12-18T13:01:23.611Z,66.60
2022-12-18T13:06:42.940Z,63.20
2022-12-18T13:12:06.911Z,63.40
2022-12-18T13:17:30.462Z,65.00
2022-12-18T13:22:37.608Z,68.40
2022-12-18T13:28:02.507Z,72.50
2022-12-18T13:33:56.272Z,65.90
2022-12-18T13:39:30.286Z,64.00
2022-12-18T13:44:41.532Z,65.00
2022-12-18T13:49:46.622Z,66.40
2022-12-18T13:54:54.358Z,63.20
2022-12-18T14:00:00.637Z,62.30
2022-12-18T14:05:04.118Z,65.60
2022-12-18T14:10:42.128Z,69.70
2022-12-18T14:15:43.209Z,69.70
2022-12-18T14:20:52.291Z,74.10
2022-12-18T14:25:58.613Z,75.10
2022-12-18T14:31:07.325Z,69.00
2022-12-18T14:36:18.979Z,75.60
2022-12-18T14:41:23.280Z,75.70
2022-12-18T14:46:37.514Z,76.10
2022-12-18T14:51:41.017Z,76.30
2022-12-18T14:56:47.443Z,76.50
2022-12-18T15:02:00.257Z,74.50
2022-12-18T15:07:12.327Z,76.50
2022-12-18T15:12:28.923Z,78.00
2022-12-18T15:17:33.818Z,77.90
2022-12-18T15:22:38.042Z,78.70
2022-12-18T15:27:47.154Z,79.00
2022-12-18T15:32:52.578Z,79.00
2022-12-18T15:37:56.061Z,79.00
2022-12-18T15:43:17.010Z,78.90
2022-12-18T15:48:23.917Z,79.60
2022-12-18T15:53:31.063Z,79.60
2022-12-18T15:58:35.141Z,79.70
2022-12-18T16:03:40.442Z,79.60
2022-12-18T16:08:44.375Z,79.70
2022-12-18T16:13:48.177Z,79.80
2022-12-18T16:18:53.048Z,79.60
2022-12-18T16:23:56.574Z,79.70
2022-12-18T16:29:00.197Z,79.90
2022-12-18T16:34:15.474Z,79.80
2022-12-18T16:39:19.057Z,79.90
2022-12-18T16:44:22.757Z,79.90
2022-12-18T16:49:27.814Z,79.90
2022-12-18T16:54:31.714Z,79.80
2022-12-18T16:59:35.340Z,80.00
2022-12-18T17:04:41.133Z,79.60
2022-12-18T17:09:44.697Z,79.10
2022-12-18T17:14:48.266Z,79.50
2022-12-18T17:19:54.169Z,79.80
2022-12-18T17:24:57.682Z,79.60
2022-12-18T17:30:01.183Z,80.00
2022-12-18T17:35:07.470Z,79.60
2022-12-18T17:40:12.047Z,79.60
2022-12-18T17:45:15.610Z,79.70
2022-12-18T17:50:20.490Z,79.80
2022-12-18T17:55:23.931Z,80.10
2022-12-18T18:00:27.414Z,79.90
2022-12-18T18:05:32.312Z,80.00
2022-12-18T18:10:38.444Z,79.90
2022-12-18T18:15:42.496Z,80.00
2022-12-18T18:20:47.430Z,79.90
2022-12-18T18:25:53.696Z,80.10
2022-12-18T18:30:57.214Z,80.10
2022-12-18T18:36:02.507Z,80.30
2022-12-18T18:41:06.805Z,80.20
2022-12-18T18:46:13.682Z,80.10
2022-12-18T18:51:21.184Z,80.30
2022-12-18T18:56:56.420Z,80.30
2022-12-18T19:01:52.913Z,80.20
2022-12-18T19:06:57.895Z,80.20
2022-12-18T19:12:18.772Z,80.10
2022-12-18T19:17:27.924Z,80.20
2022-12-18T19:22:34.714Z,80.00
2022-12-18T19:27:39.117Z,80.00
2022-12-18T19:32:42.629Z,79.90
2022-12-18T19:37:47.506Z,80.20
2022-12-18T19:42:51.279Z,80.10
2022-12-18T19:47:56.668Z,80.00
2022-12-18T19:53:04.693Z,80.20
2022-12-18T19:58:10.565Z,79.90
2022-12-18T20:03:23.463Z,80.20
2022-12-18T20:08:33.645Z,80.20
2022-12-18T20:13:37.684Z,80.20
2022-12-18T20:18:41.266Z,80.20
2022-12-18T20:23:47.320Z,80.10
2022-12-18T20:28:50.837Z,80.40
2022-12-18T20:33:54.577Z,80.20
2022-12-18T20:39:03.873Z,80.30
2022-12-18T20:44:21.568Z,80.40
2022-12-18T20:49:28.230Z,80.30
2022-12-18T20:54:33.125Z,80.30
2022-12-18T20:59:36.553Z,80.50
2022-12-18T21:04:40.112Z,80.10
2022-12-18T21:09:44.994Z,80.20
2022-12-18T21:14:48.525Z,80.10
2022-12-18T21:19:54.163Z,80.20
2022-12-18T21:24:59.850Z,80.30
2022-12-18T21:30:03.428Z,79.90
2022-12-18T21:35:07.662Z,80.00
2022-12-18T21:40:13.595Z,80.30
2022-12-18T21:45:17.283Z,80.20
2022-12-18T21:50:20.789Z,80.00
2022-12-18T21:55:25.907Z,80.20
2022-12-18T22:00:29.344Z,80.20
2022-12-18T22:05:32.826Z,80.30
2022-12-18T22:10:38.437Z,80.30
2022-12-18T22:15:42.091Z,80.40
2022-12-18T22:20:45.577Z,80.20
2022-12-18T22:25:50.490Z,80.00
2022-12-18T22:30:55.133Z,80.10
2022-12-18T22:36:07.041Z,80.10
2022-12-18T22:41:11.943Z,79.80
2022-12-18T22:46:17.287Z,80.00
2022-12-18T22:51:21.466Z,79.70
2022-12-18T22:56:26.394Z,79.80
2022-12-18T23:01:31.233Z,79.90
2022-12-18T23:06:36.175Z,79.70
2022-12-18T23:11:41.097Z,80.00
2022-12-18T23:16:44.733Z,79.80
2022-12-18T23:21:50.004Z,79.50
2022-12-18T23:26:54.878Z,79.80
2022-12-18T23:31:58.406Z,79.80
2022-12-18T23:37:04.003Z,79.80
2022-12-18T23:42:09.041Z,79.50
2022-12-18T23:47:13.877Z,79.50
2022-12-18T23:52:17.247Z,79.50
2022-12-18T23:57:22.122Z,79.30
